sensor_id;sensor_type;location;lat;lon;timestamp;P1;durP1;ratioP1;P2;durP2;ratioP2
76710;SDS011;65639;44.498;0.166;2023-03-23T00:19:04;13.03;;;8.93;;
76710;SDS011;65639;44.498;0.166;2023-03-23T00:39:31;12.10;;;6.47;;
76710;SDS011;65639;44.498;0.166;2023-03-23T01:00:01;10.30;;;6.37;;
76710;SDS011;65639;44.498;0.166;2023-03-23T01:20:32;12.17;;;4.93;;
76710;SDS011;65639;44.498;0.166;2023-03-23T01:40:57;5.33;;;4.40;;
76710;SDS011;65639;44.498;0.166;2023-03-23T02:01:25;6.50;;;4.73;;
76710;SDS011;65639;44.498;0.166;2023-03-23T02:22:01;6.93;;;4.97;;
76710;SDS011;65639;44.498;0.166;2023-03-23T02:42:20;-1.00;;;-1.00;;
76710;SDS011;65639;44.498;0.166;2023-03-23T03:02:48;6.33;;;3.90;;
76710;SDS011;65639;44.498;0.166;2023-03-23T03:23:15;3.20;;;2.50;;
76710;SDS011;65639;44.498;0.166;2023-03-23T03:43:43;2.90;;;2.20;;
76710;SDS011;65639;44.498;0.166;2023-03-23T04:04:12;3.80;;;2.07;;
76710;SDS011;65639;44.498;0.166;2023-03-23T04:24:41;2.43;;;1.67;;
76710;SDS011;65639;44.498;0.166;2023-03-23T04:45:09;3.17;;;2.00;;
76710;SDS011;65639;44.498;0.166;2023-03-23T05:05:37;4.60;;;2.50;;
76710;SDS011;65639;44.498;0.166;2023-03-23T05:26:04;3.83;;;2.17;;
76710;SDS011;65639;44.498;0.166;2023-03-23T05:46:33;2.53;;;2.00;;
76710;SDS011;65639;44.498;0.166;2023-03-23T06:07:01;2.73;;;1.77;;
76710;SDS011;65639;44.498;0.166;2023-03-23T06:27:29;4.77;;;2.20;;
76710;SDS011;65639;44.498;0.166;2023-03-23T06:47:58;2.00;;;1.90;;
76710;SDS011;65639;44.498;0.166;2023-03-23T07:08:29;4.00;;;2.00;;
76710;SDS011;65639;44.498;0.166;2023-03-23T07:28:58;6.13;;;2.80;;
76710;SDS011;65639;44.498;0.166;2023-03-23T07:49:31;2.83;;;2.27;;
76710;SDS011;65639;44.498;0.166;2023-03-23T08:10:00;3.93;;;1.97;;
76710;SDS011;65639;44.498;0.166;2023-03-23T08:30:30;2.40;;;2.07;;
76710;SDS011;65639;44.498;0.166;2023-03-23T08:51:01;4.23;;;1.80;;
76710;SDS011;65639;44.498;0.166;2023-03-23T09:11:30;2.10;;;1.57;;
76710;SDS011;65639;44.498;0.166;2023-03-23T09:32:04;2.63;;;1.67;;
76710;SDS011;65639;44.498;0.166;2023-03-23T09:52:36;3.40;;;1.97;;
76710;SDS011;65639;44.498;0.166;2023-03-23T10:13:03;2.73;;;1.67;;
76710;SDS011;65639;44.498;0.166;2023-03-23T10:33:34;3.40;;;2.53;;
76710;SDS011;65639;44.498;0.166;2023-03-23T10:53:57;4.60;;;2.60;;
76710;SDS011;65639;44.498;0.166;2023-03-23T11:14:28;7.33;;;3.33;;
76710;SDS011;65639;44.498;0.166;2023-03-23T11:34:56;3.23;;;2.37;;
76710;SDS011;65639;44.498;0.166;2023-03-23T11:55:23;3.63;;;2.57;;
76710;SDS011;65639;44.498;0.166;2023-03-23T12:15:52;2.87;;;2.67;;
76710;SDS011;65639;44.498;0.166;2023-03-23T12:36:22;3.83;;;2.70;;
76710;SDS011;65639;44.498;0.166;2023-03-23T12:56:47;4.57;;;2.60;;
76710;SDS011;65639;44.498;0.166;2023-03-23T13:17:19;13.60;;;3.07;;
76710;SDS011;65639;44.498;0.166;2023-03-23T13:37:47;3.43;;;2.00;;
76710;SDS011;65639;44.498;0.166;2023-03-23T13:58:21;2.57;;;2.00;;
76710;SDS011;65639;44.498;0.166;2023-03-23T14:18:53;4.63;;;2.20;;
76710;SDS011;65639;44.498;0.166;2023-03-23T14:39:15;5.03;;;2.10;;
76710;SDS011;65639;44.498;0.166;2023-03-23T14:59:34;1.80;;;1.57;;
76710;SDS011;65639;44.498;0.166;2023-03-23T15:20:07;3.63;;;2.00;;
76710;SDS011;65639;44.498;0.166;2023-03-23T15:40:35;3.13;;;1.80;;
76710;SDS011;65639;44.498;0.166;2023-03-23T16:01:03;2.37;;;1.40;;
76710;SDS011;65639;44.498;0.166;2023-03-23T16:21:27;12.43;;;2.20;;
76710;SDS011;65639;44.498;0.166;2023-03-23T16:41:54;2.53;;;2.07;;
76710;SDS011;65639;44.498;0.166;2023-03-23T17:02:22;3.03;;;1.87;;
76710;SDS011;65639;44.498;0.166;2023-03-23T17:22:50;3.93;;;2.10;;
76710;SDS011;65639;44.498;0.166;2023-03-23T17:43:17;3.00;;;2.50;;
76710;SDS011;65639;44.498;0.166;2023-03-23T18:03:44;5.07;;;3.70;;
76710;SDS011;65639;44.498;0.166;2023-03-23T18:24:12;4.27;;;2.83;;
76710;SDS011;65639;44.498;0.166;2023-03-23T18:44:40;5.57;;;4.10;;
76710;SDS011;65639;44.498;0.166;2023-03-23T19:05:08;6.60;;;4.53;;
76710;SDS011;65639;44.498;0.166;2023-03-23T19:25:35;7.50;;;4.40;;
76710;SDS011;65639;44.498;0.166;2023-03-23T19:46:03;8.67;;;5.70;;
76710;SDS011;65639;44.498;0.166;2023-03-23T20:06:30;9.40;;;6.83;;
76710;SDS011;65639;44.498;0.166;2023-03-23T20:27:00;9.53;;;5.90;;
76710;SDS011;65639;44.498;0.166;2023-03-23T20:47:27;7.47;;;4.63;;
76710;SDS011;65639;44.498;0.166;2023-03-23T21:07:57;11.17;;;5.90;;
76710;SDS011;65639;44.498;0.166;2023-03-23T21:28:23;8.67;;;5.70;;
76710;SDS011;65639;44.498;0.166;2023-03-23T21:48:52;11.47;;;5.80;;
76710;SDS011;65639;44.498;0.166;2023-03-23T22:09:18;8.63;;;5.67;;
76710;SDS011;65639;44.498;0.166;2023-03-23T22:29:47;10.87;;;7.07;;
76710;SDS011;65639;44.498;0.166;2023-03-23T22:50:14;18.20;;;10.17;;
76710;SDS011;65639;44.498;0.166;2023-03-23T23:10:42;15.10;;;10.07;;
76710;SDS011;65639;44.498;0.166;2023-03-23T23:31:16;16.00;;;9.60;;
76710;SDS011;65639;44.498;0.166;2023-03-23T23:51:37;-1.00;;;-1.00;;
